createdAt,value
2023-03-25T00:01:33.259Z,99259.58
2023-03-25T00:04:04.355Z,99256.33
2023-03-25T00:06:35.503Z,99253.05
2023-03-25T00:09:07.450Z,99247.18
2023-03-25T00:11:37.773Z,99244.34
2023-03-25T00:14:06.555Z,99247.58
2023-03-25T00:16:48.685Z,99251.36
2023-03-25T00:19:16.891Z,99245.40
2023-03-25T00:21:44.959Z,99241.31
2023-03-25T00:24:17.940Z,99240.86
2023-03-25T00:26:49.222Z,99238.20
2023-03-25T00:29:18.288Z,99236.10
2023-03-25T00:31:47.567Z,99237.03
2023-03-25T00:34:16.987Z,99234.59
2023-03-25T00:36:48.934Z,99232.90
2023-03-25T00:39:17.185Z,99229.95
2023-03-25T00:41:45.305Z,99232.65
2023-03-25T00:44:14.361Z,99230.75
2023-03-25T00:46:43.048Z,99223.77
2023-03-25T00:49:13.917Z,99217.20
2023-03-25T00:51:53.154Z,99220.55
2023-03-25T00:54:23.754Z,99223.16
2023-03-25T00:56:53.445Z,99234.23
2023-03-25T00:59:22.521Z,99237.54
2023-03-25T01:01:53.455Z,99241.21
2023-03-25T01:04:22.119Z,99239.70
2023-03-25T01:06:52.137Z,99231.85
2023-03-25T01:09:21.055Z,99233.90
2023-03-25T01:11:52.190Z,99233.84
2023-03-25T01:14:21.391Z,99233.45
2023-03-25T01:16:50.306Z,99231.15
2023-03-25T01:19:21.661Z,99233.83
2023-03-25T01:21:51.102Z,99234.73
2023-03-25T01:24:19.353Z,99241.06
2023-03-25T01:26:47.560Z,99241.89
2023-03-25T01:29:18.104Z,99239.70
2023-03-25T01:31:46.193Z,99242.45
2023-03-25T01:34:15.626Z,99237.70
2023-03-25T01:36:46.899Z,99235.64
2023-03-25T01:39:18.845Z,99241.11
2023-03-25T01:41:50.675Z,99239.13
2023-03-25T01:44:19.331Z,99233.92
2023-03-25T01:46:50.722Z,99234.51
2023-03-25T01:49:28.779Z,99232.14
2023-03-25T01:52:04.010Z,99234.14
2023-03-25T01:54:32.815Z,99233.08
2023-03-25T01:57:00.979Z,99232.49
2023-03-25T01:59:29.405Z,99232.52
2023-03-25T02:01:58.379Z,99232.48
2023-03-25T02:04:59.288Z,99229.63
2023-03-25T02:07:31.058Z,99226.98
2023-03-25T02:09:59.703Z,99231.21
2023-03-25T02:12:28.830Z,99227.46
2023-03-25T02:15:02.520Z,99223.81
2023-03-25T02:17:59.811Z,99222.30
2023-03-25T02:20:44.856Z,99216.25
2023-03-25T02:23:15.940Z,99213.27
2023-03-25T02:26:05.890Z,99214.38
2023-03-25T02:29:07.402Z,99209.67
2023-03-25T02:32:07.853Z,99212.31
2023-03-25T02:35:01.129Z,99207.52
2023-03-25T02:37:52.555Z,99208.19
2023-03-25T02:40:25.738Z,99214.20
2023-03-25T02:42:56.980Z,99211.34
2023-03-25T02:45:27.308Z,99211.25
2023-03-25T02:48:00.078Z,99212.98
2023-03-25T02:50:40.515Z,99216.28
2023-03-25T02:53:11.329Z,99210.59
2023-03-25T02:55:42.394Z,99208.10
2023-03-25T02:58:13.499Z,99213.41
2023-03-25T03:00:42.157Z,99209.33
2023-03-25T03:03:12.267Z,99216.56
2023-03-25T03:05:44.049Z,99220.72
2023-03-25T03:08:49.343Z,99220.96
2023-03-25T03:11:21.969Z,99213.77
2023-03-25T03:14:09.167Z,99205.71
2023-03-25T03:17:25.985Z,99206.91
2023-03-25T03:20:08.619Z,99201.44
2023-03-25T03:22:52.682Z,99206.91
2023-03-25T03:25:36.822Z,99202.88
2023-03-25T03:28:45.575Z,99201.10
2023-03-25T03:31:48.836Z,99194.50
2023-03-25T03:34:54.775Z,99198.98
2023-03-25T03:37:26.588Z,99205.73
2023-03-25T03:39:56.160Z,99208.55
2023-03-25T03:42:29.030Z,99208.85
2023-03-25T03:45:00.700Z,99203.95
2023-03-25T03:47:32.041Z,99199.13
2023-03-25T03:50:09.723Z,99201.75
2023-03-25T03:52:45.702Z,99198.47
2023-03-25T03:55:29.344Z,99193.48
2023-03-25T04:01:27.320Z,99193.46
2023-03-25T04:04:00.423Z,99180.80
2023-03-25T04:06:50.024Z,99182.53
2023-03-25T04:09:41.237Z,99184.21
2023-03-25T04:12:20.778Z,99183.48
2023-03-25T04:14:49.505Z,99182.80
2023-03-25T04:17:16.962Z,99192.23
2023-03-25T04:19:48.533Z,99191.96
2023-03-25T04:22:19.086Z,99186.33
2023-03-25T04:24:49.181Z,99186.19
2023-03-25T04:27:16.286Z,99188.89
2023-03-25T04:29:47.171Z,99187.15
2023-03-25T04:32:16.376Z,99186.14
2023-03-25T04:34:43.403Z,99188.16
2023-03-25T04:37:10.905Z,99187.68
2023-03-25T04:39:39.161Z,99187.69
2023-03-25T04:42:06.194Z,99188.86
2023-03-25T04:44:33.010Z,99195.41
2023-03-25T04:47:00.218Z,99196.11
2023-03-25T04:49:27.712Z,99199.59
2023-03-25T04:51:55.094Z,99197.27
2023-03-25T04:54:23.065Z,99199.33
2023-03-25T04:56:50.570Z,99196.64
2023-03-25T04:59:23.654Z,99196.61
2023-03-25T05:01:52.194Z,99200.91
2023-03-25T05:04:19.866Z,99201.41
2023-03-25T05:06:52.434Z,99195.02
2023-03-25T05:09:21.459Z,99193.96
2023-03-25T05:11:48.740Z,99191.63
2023-03-25T05:14:19.926Z,99189.35
2023-03-25T05:16:47.461Z,99190.33
2023-03-25T05:19:14.659Z,99180.11
2023-03-25T05:21:42.112Z,99178.16
2023-03-25T05:24:10.155Z,99174.13
2023-03-25T05:26:39.159Z,99172.83
2023-03-25T05:29:13.371Z,99172.02
2023-03-25T05:31:41.088Z,99163.01
2023-03-25T05:34:08.685Z,99158.36
2023-03-25T05:36:35.465Z,99159.70
2023-03-25T05:39:04.662Z,99162.44
2023-03-25T05:41:32.453Z,99160.86
2023-03-25T05:44:14.743Z,99161.37
2023-03-25T05:46:41.856Z,99160.98
2023-03-25T05:49:08.431Z,99160.04
2023-03-25T05:51:44.441Z,99158.52
2023-03-25T05:54:11.949Z,99154.67
2023-03-25T05:56:39.188Z,99161.30
2023-03-25T05:59:07.555Z,99157.35
2023-03-25T06:01:37.246Z,99153.89
2023-03-25T06:04:09.314Z,99155.73
2023-03-25T06:06:36.273Z,99149.64
2023-03-25T06:09:05.667Z,99150.75
2023-03-25T06:11:37.421Z,99151.85
2023-03-25T06:14:04.757Z,99159.13
2023-03-25T06:16:36.238Z,99150.45
2023-03-25T06:19:03.075Z,99144.29
2023-03-25T06:21:32.931Z,99137.94
2023-03-25T06:24:07.989Z,99129.95
2023-03-25T06:26:35.434Z,99125.42
2023-03-25T06:29:04.665Z,99130.95
2023-03-25T06:31:32.879Z,99132.44
2023-03-25T06:34:00.743Z,99127.35
2023-03-25T06:36:31.858Z,99129.15
2023-03-25T06:38:58.812Z,99132.86
2023-03-25T06:41:35.168Z,99127.98
2023-03-25T06:44:24.711Z,99124.36
2023-03-25T06:46:51.941Z,99134.90
2023-03-25T06:49:39.280Z,99139.13
2023-03-25T06:52:05.970Z,99134.94
2023-03-25T06:54:33.291Z,99134.31
2023-03-25T06:56:59.950Z,99135.44
2023-03-25T06:59:31.886Z,99134.73
2023-03-25T07:01:59.103Z,99133.70
2023-03-25T07:04:26.097Z,99125.44
2023-03-25T07:06:57.760Z,99124.73
2023-03-25T07:09:24.852Z,99125.80
2023-03-25T07:11:51.652Z,99132.00
2023-03-25T07:14:20.440Z,99130.35
2023-03-25T07:16:47.154Z,99121.75
2023-03-25T07:19:17.716Z,99118.85
2023-03-25T07:21:47.809Z,99117.27
2023-03-25T07:24:15.373Z,99111.10
2023-03-25T07:26:41.908Z,99110.55
2023-03-25T07:29:11.545Z,99112.71
2023-03-25T07:31:41.299Z,99105.19
2023-03-25T07:34:08.026Z,99109.98
2023-03-25T07:36:34.789Z,99103.52
2023-03-25T07:39:01.665Z,99104.27
2023-03-25T07:41:28.617Z,99102.68
2023-03-25T07:44:06.267Z,99101.13
2023-03-25T07:46:35.967Z,99097.50
2023-03-25T07:49:03.560Z,99094.34
2023-03-25T07:51:32.442Z,99096.08
2023-03-25T07:54:05.597Z,99089.34
2023-03-25T07:56:34.207Z,99087.68
2023-03-25T07:59:01.826Z,99087.95
2023-03-25T08:01:28.745Z,99081.64
2023-03-25T08:03:55.496Z,99068.67
2023-03-25T08:06:27.761Z,99066.27
2023-03-25T08:08:55.280Z,99074.73
2023-03-25T08:11:21.891Z,99075.58
2023-03-25T08:13:49.307Z,99075.03
2023-03-25T08:16:16.005Z,99072.77
2023-03-25T08:18:44.365Z,99070.77
2023-03-25T08:21:12.248Z,99065.94
2023-03-25T08:23:40.501Z,99064.97
2023-03-25T08:26:07.454Z,99064.08
2023-03-25T08:28:34.108Z,99062.63
2023-03-25T08:31:01.919Z,99060.46
2023-03-25T08:33:42.328Z,99058.91
2023-03-25T08:36:13.189Z,99056.48
2023-03-25T08:38:41.014Z,99044.19
2023-03-25T08:41:07.840Z,99041.63
2023-03-25T08:43:35.274Z,99047.55
2023-03-25T08:46:06.107Z,99048.23
2023-03-25T08:48:37.209Z,99043.32
2023-03-25T08:51:06.670Z,99029.17
2023-03-25T08:53:33.255Z,99028.09
2023-03-25T08:56:00.047Z,99019.92
2023-03-25T08:58:27.325Z,99010.29
2023-03-25T09:00:55.091Z,99015.19
2023-03-25T09:03:22.310Z,99016.45
2023-03-25T09:05:49.455Z,99013.30
2023-03-25T09:08:17.799Z,99009.61
2023-03-25T09:10:44.534Z,99009.98
2023-03-25T09:13:14.091Z,99008.05
2023-03-25T09:15:40.954Z,99014.71
2023-03-25T09:18:08.382Z,99012.03
2023-03-25T09:20:36.879Z,99014.77
2023-03-25T09:23:03.798Z,99017.69
2023-03-25T09:25:37.025Z,99017.48
2023-03-25T09:28:04.069Z,99013.74
2023-03-25T09:30:30.809Z,99009.37
2023-03-25T09:32:58.104Z,99006.78
2023-03-25T09:35:25.617Z,99012.27
2023-03-25T09:37:54.758Z,99014.16
2023-03-25T09:40:21.914Z,99015.55
2023-03-25T09:42:58.115Z,99007.73
2023-03-25T09:45:44.038Z,99004.50
2023-03-25T09:48:37.305Z,99011.77
2023-03-25T09:51:15.715Z,99003.61
2023-03-25T09:53:47.908Z,99003.55
2023-03-25T09:56:22.627Z,99004.52
2023-03-25T09:58:56.963Z,99000.77
2023-03-25T10:01:37.889Z,98993.05
2023-03-25T10:04:11.016Z,98989.20
2023-03-25T10:06:57.640Z,98987.09
2023-03-25T10:09:45.825Z,98989.19
2023-03-25T10:12:51.913Z,98989.67
2023-03-25T10:15:43.663Z,98992.22
2023-03-25T10:18:24.151Z,98995.79
2023-03-25T10:21:06.669Z,98990.80
2023-03-25T10:23:47.879Z,98972.20
2023-03-25T10:26:19.855Z,98960.88
2023-03-25T10:28:51.872Z,98946.96
2023-03-25T10:31:24.346Z,98946.37
2023-03-25T10:34:03.913Z,98946.63
2023-03-25T10:36:35.978Z,98939.63
2023-03-25T10:39:04.438Z,98943.38
2023-03-25T10:41:38.715Z,98949.73
2023-03-25T10:44:09.244Z,98947.08
2023-03-25T10:46:46.843Z,98954.85
2023-03-25T10:49:26.059Z,98942.46
2023-03-25T10:51:56.791Z,98930.20
2023-03-25T10:54:34.157Z,98922.91
2023-03-25T10:57:06.574Z,98920.85
2023-03-25T10:59:37.116Z,98924.54
2023-03-25T11:02:18.204Z,98920.05
2023-03-25T11:04:51.087Z,98919.57
2023-03-25T11:07:19.633Z,98916.91
2023-03-25T11:09:46.835Z,98911.42
2023-03-25T11:12:13.834Z,98910.87
2023-03-25T11:14:40.612Z,98905.55
2023-03-25T11:17:14.772Z,98903.98
2023-03-25T11:19:55.424Z,98910.45
2023-03-25T11:22:24.871Z,98901.62
2023-03-25T11:25:01.185Z,98895.36
2023-03-25T11:27:29.808Z,98893.45
2023-03-25T11:30:03.108Z,98894.35
2023-03-25T11:32:36.752Z,98891.98
2023-03-25T11:35:18.886Z,98897.92
2023-03-25T11:37:48.420Z,98895.36
2023-03-25T11:40:16.840Z,98893.05
2023-03-25T11:42:55.360Z,98892.90
2023-03-25T11:45:38.464Z,98890.04
2023-03-25T11:48:15.214Z,98887.03
2023-03-25T11:50:53.494Z,98891.05
2023-03-25T11:53:26.786Z,98898.41
2023-03-25T11:55:55.327Z,98901.21
2023-03-25T11:58:26.734Z,98898.44
2023-03-25T12:01:05.426Z,98896.73
2023-03-25T12:03:34.270Z,98896.19
2023-03-25T12:06:04.422Z,98898.99
2023-03-25T12:08:51.349Z,98897.96
2023-03-25T12:11:21.383Z,98900.00
2023-03-25T12:14:03.435Z,98902.96
2023-03-25T12:17:08.264Z,98900.39
2023-03-25T12:20:00.526Z,98898.41
2023-03-25T12:22:45.992Z,98895.73
2023-03-25T12:25:26.442Z,98893.23
2023-03-25T12:28:05.983Z,98894.78
2023-03-25T12:30:39.444Z,98896.55
2023-03-25T12:33:45.853Z,98897.38
2023-03-25T12:36:28.032Z,98904.42
2023-03-25T12:39:17.783Z,98903.83
2023-03-25T12:42:07.696Z,98904.98
2023-03-25T12:44:37.273Z,98903.48
2023-03-25T12:47:19.392Z,98901.83
2023-03-25T12:50:13.313Z,98901.94
2023-03-25T12:52:47.821Z,98897.57
2023-03-25T12:55:20.480Z,98894.50
2023-03-25T12:57:56.279Z,98891.78
2023-03-25T13:00:39.110Z,98887.42
2023-03-25T13:03:24.441Z,98889.40
2023-03-25T13:06:14.632Z,98883.05
2023-03-25T13:08:53.348Z,98881.99
2023-03-25T13:11:27.882Z,98881.86
2023-03-25T13:13:57.888Z,98876.52
2023-03-25T13:16:27.053Z,98879.42
2023-03-25T13:19:02.374Z,98882.00
2023-03-25T13:21:34.882Z,98878.58
2023-03-25T13:24:05.101Z,98877.56
2023-03-25T13:26:32.050Z,98884.04
2023-03-25T13:29:13.684Z,98880.88
2023-03-25T13:31:41.919Z,98873.70
2023-03-25T13:34:47.987Z,98870.36
2023-03-25T13:37:23.983Z,98860.84
2023-03-25T13:39:57.426Z,98862.35
2023-03-25T13:42:33.149Z,98859.86
2023-03-25T13:45:00.322Z,98861.88
2023-03-25T13:47:33.299Z,98856.55
2023-03-25T13:50:08.007Z,98851.23
2023-03-25T13:52:38.856Z,98845.74
2023-03-25T13:55:15.085Z,98840.94
2023-03-25T13:58:02.846Z,98841.09
2023-03-25T14:00:46.764Z,98838.55
2023-03-25T14:03:40.849Z,98834.92
2023-03-25T14:06:19.911Z,98833.09
2023-03-25T14:08:52.816Z,98825.87
2023-03-25T14:11:39.920Z,98823.73
2023-03-25T14:14:09.938Z,98823.90
2023-03-25T14:16:59.520Z,98823.83
2023-03-25T14:19:37.374Z,98819.07
2023-03-25T14:22:27.827Z,98816.35
2023-03-25T14:24:55.981Z,98810.57
2023-03-25T14:27:27.205Z,98807.65
2023-03-25T14:29:59.720Z,98808.41
2023-03-25T14:32:32.778Z,98808.85
2023-03-25T14:35:31.992Z,98802.16
2023-03-25T14:38:08.432Z,98799.70
2023-03-25T14:40:47.404Z,98797.08
2023-03-25T14:43:32.448Z,98794.15
2023-03-25T14:46:10.976Z,98788.27
2023-03-25T14:49:05.176Z,98790.05
2023-03-25T14:51:34.143Z,98789.45
2023-03-25T14:54:21.128Z,98787.90
2023-03-25T14:57:03.614Z,98783.96
2023-03-25T14:59:31.871Z,98785.42
2023-03-25T15:02:04.432Z,98778.38
2023-03-25T15:04:37.234Z,98770.88
2023-03-25T15:07:09.234Z,98767.70
2023-03-25T15:09:53.022Z,98766.61
2023-03-25T15:12:23.528Z,98766.18
2023-03-25T15:14:55.628Z,98760.55
2023-03-25T15:17:43.977Z,98762.56
2023-03-25T15:20:22.741Z,98762.16
2023-03-25T15:23:35.689Z,98769.27
2023-03-25T15:26:03.025Z,98768.25
2023-03-25T15:28:44.952Z,98766.49
2023-03-25T15:31:31.335Z,98763.30
2023-03-25T15:34:03.464Z,98760.55
2023-03-25T15:36:30.616Z,98757.98
2023-03-25T15:39:18.666Z,98756.39
2023-03-25T15:41:55.654Z,98752.98
2023-03-25T15:44:42.668Z,98749.80
2023-03-25T15:47:32.430Z,98749.23
2023-03-25T15:50:29.984Z,98747.20
2023-03-25T15:53:02.922Z,98741.30
2023-03-25T15:55:39.232Z,98738.16
2023-03-25T15:58:25.624Z,98735.58
2023-03-25T16:00:55.528Z,98727.06
2023-03-25T16:03:26.493Z,98723.10
2023-03-25T16:05:58.953Z,98719.48
2023-03-25T16:08:40.461Z,98718.25
2023-03-25T16:11:19.970Z,98718.38
2023-03-25T16:13:47.152Z,98719.73
2023-03-25T16:17:33.164Z,98721.98
2023-03-25T16:20:01.430Z,98720.58
2023-03-25T16:22:38.918Z,98721.30
2023-03-25T16:25:12.803Z,98718.82
2023-03-25T16:27:45.877Z,98716.86
2023-03-25T16:30:26.011Z,98717.13
2023-03-25T16:33:10.807Z,98719.34
2023-03-25T16:36:04.292Z,98721.77
2023-03-25T16:38:32.550Z,98727.05
2023-03-25T16:41:07.593Z,98729.66
2023-03-25T16:43:35.786Z,98733.38
2023-03-25T16:46:04.640Z,98735.52
2023-03-25T16:48:34.766Z,98734.80
2023-03-25T16:51:23.555Z,98739.57
2023-03-25T16:53:56.282Z,98739.67
2023-03-25T16:56:31.535Z,98739.38
2023-03-25T16:59:06.350Z,98739.13
2023-03-25T17:01:39.584Z,98741.41
2023-03-25T17:04:13.786Z,98737.94
2023-03-25T17:06:53.336Z,98740.13
2023-03-25T17:09:25.325Z,98738.17
2023-03-25T17:11:56.833Z,98732.99
2023-03-25T17:14:33.823Z,98728.55
2023-03-25T17:17:12.474Z,98722.42
2023-03-25T17:19:47.871Z,98712.98
2023-03-25T17:22:45.061Z,98707.71
2023-03-25T17:25:27.447Z,98700.02
2023-03-25T17:27:56.936Z,98701.76
2023-03-25T17:30:28.256Z,98707.57
2023-03-25T17:33:19.449Z,98711.04
2023-03-25T17:35:54.457Z,98704.46
2023-03-25T17:38:34.027Z,98707.48
2023-03-25T17:41:07.103Z,98709.63
2023-03-25T17:43:37.955Z,98699.23
2023-03-25T17:46:06.988Z,98703.64
2023-03-25T17:48:36.845Z,98703.70
2023-03-25T17:51:05.749Z,98706.59
2023-03-25T17:53:35.349Z,98711.31
2023-03-25T17:56:06.511Z,98714.90
2023-03-25T17:58:37.130Z,98716.39
2023-03-25T18:01:05.747Z,98723.92
2023-03-25T18:03:35.961Z,98721.09
2023-03-25T18:06:05.346Z,98718.53
2023-03-25T18:08:34.994Z,98715.64
2023-03-25T18:11:03.336Z,98711.75
2023-03-25T18:13:32.233Z,98707.56
2023-03-25T18:16:03.419Z,98704.02
2023-03-25T18:18:32.144Z,98694.83
2023-03-25T18:21:03.728Z,98689.70
2023-03-25T18:23:33.431Z,98677.23
2023-03-25T18:26:01.786Z,98671.41
2023-03-25T18:28:34.578Z,98665.58
2023-03-25T18:31:03.600Z,98668.33
2023-03-25T18:33:34.696Z,98664.34
2023-03-25T18:36:03.282Z,98657.59
2023-03-25T18:38:31.650Z,98656.89
2023-03-25T18:41:00.806Z,98652.89
2023-03-25T18:43:30.540Z,98648.03
2023-03-25T18:45:59.245Z,98645.27
2023-03-25T18:48:28.525Z,98647.29
2023-03-25T18:50:58.171Z,98648.89
2023-03-25T18:53:28.070Z,98652.00
2023-03-25T18:55:59.989Z,98654.71
2023-03-25T18:58:31.389Z,98655.95
2023-03-25T19:01:00.707Z,98653.00
2023-03-25T19:03:38.967Z,98649.92
2023-03-25T19:06:13.409Z,98646.81
2023-03-25T19:08:43.699Z,98646.27
2023-03-25T19:11:21.174Z,98645.94
2023-03-25T19:13:53.407Z,98651.16
2023-03-25T19:16:23.374Z,98649.97
2023-03-25T19:18:52.216Z,98647.05
2023-03-25T19:21:26.344Z,98652.66
2023-03-25T19:23:54.640Z,98651.65
2023-03-25T19:26:22.631Z,98651.38
2023-03-25T19:28:52.644Z,98649.45
2023-03-25T19:31:21.252Z,98649.09
2023-03-25T19:33:59.086Z,98643.34
2023-03-25T19:36:27.474Z,98646.96
2023-03-25T19:39:05.463Z,98646.15
2023-03-25T19:41:42.192Z,98640.06
2023-03-25T19:44:10.886Z,98636.63
2023-03-25T19:46:39.555Z,98637.40
2023-03-25T19:49:07.937Z,98639.42
2023-03-25T19:51:36.127Z,98640.26
2023-03-25T19:54:05.153Z,98638.09
2023-03-25T19:56:33.260Z,98634.05
2023-03-25T19:59:01.349Z,98627.94
2023-03-25T20:01:31.082Z,98626.52
2023-03-25T20:04:00.948Z,98625.02
2023-03-25T20:06:30.715Z,98624.60
2023-03-25T20:08:59.012Z,98626.15
2023-03-25T20:11:27.026Z,98630.13
2023-03-25T20:14:06.477Z,98628.62
2023-03-25T20:16:36.807Z,98630.26
2023-03-25T20:19:04.908Z,98625.95
2023-03-25T20:21:37.107Z,98625.57
2023-03-25T20:24:06.361Z,98627.05
2023-03-25T20:26:34.403Z,98621.66
2023-03-25T20:29:03.119Z,98619.03
2023-03-25T20:31:33.337Z,98616.80
2023-03-25T20:34:01.521Z,98611.72
2023-03-25T20:36:30.871Z,98598.56
2023-03-25T20:39:00.863Z,98588.77
2023-03-25T20:41:29.267Z,98583.88
2023-03-25T20:43:57.371Z,98586.20
2023-03-25T20:46:28.563Z,98584.45
2023-03-25T20:48:57.954Z,98589.42
2023-03-25T20:51:26.722Z,98576.61
2023-03-25T20:53:57.030Z,98578.02
2023-03-25T20:56:25.416Z,98572.58
2023-03-25T20:58:55.124Z,98566.45
2023-03-25T21:01:23.653Z,98564.66
2023-03-25T21:03:53.353Z,98558.77
2023-03-25T21:06:25.640Z,98558.42
2023-03-25T21:08:58.324Z,98560.33
2023-03-25T21:11:29.426Z,98562.02
2023-03-25T21:13:57.497Z,98568.13
2023-03-25T21:16:26.517Z,98563.07
2023-03-25T21:18:56.714Z,98565.05
2023-03-25T21:21:25.900Z,98559.84
2023-03-25T21:23:53.877Z,98557.87
2023-03-25T21:26:26.642Z,98557.70
2023-03-25T21:28:55.012Z,98556.94
2023-03-25T21:31:23.223Z,98552.48
2023-03-25T21:33:52.993Z,98553.02
2023-03-25T21:36:23.347Z,98546.85
2023-03-25T21:38:55.721Z,98544.29
2023-03-25T21:41:24.939Z,98541.52
2023-03-25T21:43:53.516Z,98533.54
2023-03-25T21:46:27.660Z,98531.29
2023-03-25T21:48:58.569Z,98524.65
2023-03-25T21:51:30.486Z,98521.63
2023-03-25T21:54:00.455Z,98518.97
2023-03-25T21:56:31.688Z,98515.16
2023-03-25T21:59:02.052Z,98511.13
2023-03-25T22:01:32.654Z,98503.52
2023-03-25T22:04:02.536Z,98505.37
2023-03-25T22:06:32.005Z,98505.97
2023-03-25T22:09:05.601Z,98505.99
2023-03-25T22:11:35.721Z,98505.59
2023-03-25T22:14:05.489Z,98500.88
2023-03-25T22:16:34.858Z,98502.45
2023-03-25T22:19:03.359Z,98501.64
2023-03-25T22:21:37.175Z,98498.66
2023-03-25T22:24:09.130Z,98501.82
2023-03-25T22:26:43.109Z,98499.55
2023-03-25T22:29:13.632Z,98497.70
2023-03-25T22:31:45.660Z,98496.10
2023-03-25T22:34:15.293Z,98493.28
2023-03-25T22:36:49.826Z,98492.02
2023-03-25T22:39:19.709Z,98490.66
2023-03-25T22:41:48.856Z,98490.85
2023-03-25T22:44:18.239Z,98491.14
2023-03-25T22:46:51.585Z,98496.92
2023-03-25T22:49:20.712Z,98496.88
2023-03-25T22:51:51.463Z,98495.48
2023-03-25T22:54:19.564Z,98496.73
2023-03-25T22:56:47.935Z,98494.55
2023-03-25T22:59:16.944Z,98492.46
2023-03-25T23:01:49.466Z,98492.88
2023-03-25T23:04:18.210Z,98494.22
2023-03-25T23:06:53.872Z,98497.59
2023-03-25T23:09:45.251Z,98499.78
2023-03-25T23:12:31.464Z,98501.49
2023-03-25T23:15:05.254Z,98495.41
2023-03-25T23:17:35.211Z,98495.33
2023-03-25T23:20:07.152Z,98498.02
2023-03-25T23:22:35.662Z,98498.45
2023-03-25T23:25:05.175Z,98496.83
2023-03-25T23:27:34.052Z,98495.63
2023-03-25T23:30:05.134Z,98488.97
2023-03-25T23:32:34.317Z,98489.91
2023-03-25T23:35:03.248Z,98482.52
2023-03-25T23:37:34.022Z,98482.78
2023-03-25T23:40:02.512Z,98481.83
2023-03-25T23:42:34.914Z,98478.96
2023-03-25T23:45:05.012Z,98477.34
2023-03-25T23:47:33.152Z,98482.14
2023-03-25T23:50:02.123Z,98477.84
2023-03-25T23:52:30.994Z,98474.68
2023-03-25T23:54:59.321Z,98473.35
2023-03-25T23:57:27.564Z,98479.93
2023-03-25T23:59:55.838Z,98480.63
